Reber, New York
Current Conditions -  °F | °C
As of 2:54 AM on Monday 26 Jan 2015 (Local Time) from KBTV Reporting Station
Clear Clear  
Wind Chill:   Ceiling: Unl
Heat Index:   Visibility: 10mi
Dew Point: -7°   Wind: 3mph
Humidity: 63%   Direction: 80°E
Pressure: 30.14"   Gusts: NA
Location:  44.3585°N, 73.4161°W
Report Text: KBTV 260754Z AUTO 08003KT 10SM CLR M16/M22 A3014 RMK AO2 SLP215 T11611217
Loading
Personal Weather Stations






























Interactive Weather Map New forecast layout! Learn more

10-Day Weather Forecast

Advertisements
Track Severe Weather on mobile